createdAt,value
2017-12-31T00:00:07.298Z,0.00
2017-12-31T00:01:07.309Z,0.00
2017-12-31T00:02:07.313Z,0.00
2017-12-31T00:03:07.327Z,0.00
2017-12-31T00:04:07.329Z,0.00
2017-12-31T00:05:07.338Z,0.00
2017-12-31T00:06:07.346Z,0.00
2017-12-31T00:07:07.355Z,0.00
2017-12-31T00:08:07.363Z,0.00
2017-12-31T00:09:07.370Z,0.00
2017-12-31T00:10:07.371Z,0.00
2017-12-31T00:11:07.393Z,0.00
2017-12-31T00:12:07.394Z,0.00
2017-12-31T00:13:07.400Z,0.00
2017-12-31T00:14:07.401Z,0.00
2017-12-31T00:15:07.414Z,0.00
2017-12-31T00:16:07.420Z,0.00
2017-12-31T00:17:07.433Z,0.00
2017-12-31T00:18:07.432Z,0.00
2017-12-31T00:19:07.436Z,0.00
2017-12-31T00:20:07.444Z,0.00
2017-12-31T00:21:07.457Z,0.00
2017-12-31T00:22:07.457Z,0.00
2017-12-31T00:23:07.473Z,0.00
2017-12-31T00:24:07.478Z,0.00
2017-12-31T00:25:07.485Z,0.00
2017-12-31T00:26:07.491Z,0.00
2017-12-31T00:27:07.496Z,0.00
2017-12-31T00:28:07.502Z,0.00
2017-12-31T00:29:07.515Z,0.00
2017-12-31T00:30:07.521Z,0.00
2017-12-31T00:31:07.523Z,0.00
2017-12-31T00:32:07.535Z,0.00
2017-12-31T00:33:07.544Z,0.00
2017-12-31T00:34:07.549Z,0.00
2017-12-31T00:35:07.553Z,0.00
2017-12-31T00:36:07.566Z,0.00
2017-12-31T00:37:07.567Z,0.00
2017-12-31T00:38:07.581Z,0.00
2017-12-31T00:39:07.588Z,0.00
2017-12-31T00:40:07.593Z,0.00
2017-12-31T00:41:07.601Z,0.00
2017-12-31T00:42:07.608Z,0.00
2017-12-31T00:43:07.616Z,0.00
2017-12-31T00:44:07.617Z,0.00
2017-12-31T00:45:07.625Z,0.00
2017-12-31T00:46:07.631Z,0.00
2017-12-31T00:47:07.643Z,0.00
2017-12-31T00:48:07.651Z,0.00
2017-12-31T00:49:07.654Z,0.00
2017-12-31T00:50:07.664Z,0.00
2017-12-31T00:51:07.669Z,0.00
2017-12-31T00:52:07.681Z,0.00
2017-12-31T00:53:07.689Z,0.00
2017-12-31T00:54:07.696Z,0.00
2017-12-31T00:55:07.703Z,0.00
2017-12-31T00:56:07.709Z,0.00
2017-12-31T00:57:07.712Z,0.00
2017-12-31T00:58:07.719Z,0.00
2017-12-31T00:59:07.734Z,0.00
2017-12-31T01:00:07.736Z,0.00
2017-12-31T01:01:07.742Z,0.00
2017-12-31T01:02:07.749Z,0.00
2017-12-31T01:03:07.756Z,0.00
2017-12-31T01:04:07.770Z,0.00
2017-12-31T01:05:07.773Z,0.00
2017-12-31T01:06:07.786Z,0.00
2017-12-31T01:07:07.785Z,0.00
2017-12-31T01:08:07.795Z,0.00
2017-12-31T01:09:07.807Z,0.00
2017-12-31T01:10:07.814Z,0.00
2017-12-31T01:11:07.821Z,0.00
2017-12-31T01:12:07.831Z,0.00
2017-12-31T01:13:07.837Z,0.00
2017-12-31T01:14:07.838Z,0.00
2017-12-31T01:15:07.845Z,0.00
2017-12-31T01:16:07.851Z,0.00
2017-12-31T01:17:07.860Z,0.00
2017-12-31T01:18:07.866Z,0.00
2017-12-31T01:19:07.912Z,0.00
2017-12-31T01:20:07.881Z,0.00
2017-12-31T01:21:07.895Z,0.00
2017-12-31T01:22:07.897Z,0.00
2017-12-31T01:23:07.909Z,0.00
2017-12-31T01:24:07.911Z,0.00
2017-12-31T01:25:07.925Z,0.00
2017-12-31T01:26:07.931Z,0.00
2017-12-31T01:27:07.933Z,0.00
2017-12-31T01:28:07.946Z,0.00
2017-12-31T01:29:07.948Z,0.00
2017-12-31T01:30:07.954Z,0.00
2017-12-31T01:31:07.970Z,0.00
2017-12-31T01:32:07.975Z,0.00
2017-12-31T01:33:07.983Z,0.00
2017-12-31T01:34:07.991Z,0.00
2017-12-31T01:35:07.991Z,0.00
2017-12-31T01:36:07.998Z,0.00
2017-12-31T01:37:08.012Z,0.00
2017-12-31T01:38:08.019Z,0.00
2017-12-31T01:39:08.025Z,0.00
2017-12-31T01:40:08.030Z,0.00
2017-12-31T01:41:08.046Z,0.00
2017-12-31T01:42:08.041Z,0.00
2017-12-31T01:43:08.056Z,0.00
2017-12-31T01:44:08.061Z,0.00
2017-12-31T01:45:08.070Z,0.00
2017-12-31T01:46:08.076Z,0.00
2017-12-31T01:47:08.085Z,0.00
2017-12-31T01:48:08.091Z,0.00
2017-12-31T01:49:08.099Z,0.00
2017-12-31T01:50:08.104Z,0.00
2017-12-31T01:51:08.113Z,0.00
2017-12-31T01:52:08.114Z,0.00
2017-12-31T01:53:08.128Z,0.00
2017-12-31T01:54:08.133Z,0.00
2017-12-31T01:55:08.145Z,0.00
2017-12-31T01:56:08.150Z,0.00
2017-12-31T01:57:08.150Z,0.00
2017-12-31T01:58:08.157Z,0.00
2017-12-31T01:59:08.164Z,0.00
2017-12-31T02:00:08.174Z,0.00
2017-12-31T02:01:08.185Z,0.00
2017-12-31T02:02:08.193Z,0.00
2017-12-31T02:03:08.198Z,0.00
2017-12-31T02:04:08.200Z,0.00
2017-12-31T02:05:08.212Z,0.00
2017-12-31T02:06:08.223Z,0.00
2017-12-31T02:07:08.221Z,0.00
2017-12-31T02:08:08.228Z,0.00
2017-12-31T02:09:08.240Z,0.00
2017-12-31T02:10:08.248Z,0.00
2017-12-31T02:11:08.249Z,0.00
2017-12-31T02:12:08.261Z,0.00
2017-12-31T02:13:08.269Z,0.00
2017-12-31T02:14:08.270Z,0.00
2017-12-31T02:15:08.284Z,0.00
2017-12-31T02:16:08.285Z,0.00
2017-12-31T02:17:08.298Z,0.00
2017-12-31T02:18:08.299Z,0.00
2017-12-31T02:19:08.312Z,0.00
2017-12-31T02:20:08.315Z,0.00
2017-12-31T02:21:08.328Z,0.00
2017-12-31T02:22:08.330Z,0.00
2017-12-31T02:23:08.341Z,0.00
2017-12-31T02:24:08.344Z,0.00
2017-12-31T02:25:08.357Z,0.00
2017-12-31T02:26:08.363Z,0.00
2017-12-31T02:27:08.365Z,0.00
2017-12-31T02:28:08.375Z,0.00
2017-12-31T02:29:08.387Z,0.00
2017-12-31T02:30:08.385Z,0.00
2017-12-31T02:31:08.396Z,0.00
2017-12-31T02:32:08.406Z,0.00
2017-12-31T02:33:08.414Z,0.00
2017-12-31T02:34:08.420Z,0.00
2017-12-31T02:35:08.421Z,0.00
2017-12-31T02:36:08.436Z,0.00
2017-12-31T02:37:08.442Z,0.00
2017-12-31T02:38:08.448Z,0.00
2017-12-31T02:39:08.456Z,0.00
2017-12-31T02:40:08.457Z,0.00
2017-12-31T02:41:08.470Z,0.00
2017-12-31T02:42:08.470Z,0.00
2017-12-31T02:43:08.491Z,0.00
2017-12-31T02:44:08.493Z,0.00
2017-12-31T02:45:08.494Z,0.00
2017-12-31T02:46:08.499Z,0.00
2017-12-31T02:47:08.507Z,0.00
2017-12-31T02:48:08.521Z,0.00
2017-12-31T02:49:08.526Z,0.00
2017-12-31T02:50:08.528Z,0.00
2017-12-31T02:51:08.544Z,0.00
2017-12-31T02:52:08.546Z,0.00
2017-12-31T02:53:08.556Z,0.00
2017-12-31T02:54:08.622Z,0.00
2017-12-31T02:55:08.566Z,0.00
2017-12-31T02:56:08.573Z,0.00
2017-12-31T02:57:08.580Z,0.00
2017-12-31T02:58:08.592Z,0.00
2017-12-31T02:59:08.593Z,0.00
2017-12-31T03:00:08.611Z,0.00
2017-12-31T03:01:08.607Z,0.00
2017-12-31T03:02:08.613Z,0.00
2017-12-31T03:03:08.622Z,0.00
2017-12-31T03:04:08.636Z,0.00
2017-12-31T03:05:08.642Z,0.00
2017-12-31T03:06:08.643Z,0.00
2017-12-31T03:07:08.651Z,0.00
2017-12-31T03:08:08.669Z,0.00
2017-12-31T03:09:08.674Z,0.00
2017-12-31T03:10:08.673Z,0.00
2017-12-31T03:11:08.685Z,0.00
2017-12-31T03:12:08.689Z,0.00
2017-12-31T03:13:08.694Z,0.00
2017-12-31T03:14:08.700Z,0.00
2017-12-31T03:15:08.714Z,0.00
2017-12-31T03:16:08.720Z,0.00
2017-12-31T03:17:08.723Z,0.00
2017-12-31T03:18:08.731Z,0.00
2017-12-31T03:19:08.738Z,0.00
2017-12-31T03:20:08.749Z,0.00
2017-12-31T03:21:08.753Z,0.00
2017-12-31T03:22:08.764Z,0.00
2017-12-31T03:23:08.766Z,0.00
2017-12-31T03:24:08.778Z,0.00
2017-12-31T03:25:08.781Z,0.00
2017-12-31T03:26:08.795Z,0.00
2017-12-31T03:27:08.801Z,0.00
2017-12-31T03:28:08.809Z,0.00
2017-12-31T03:29:08.815Z,0.00
2017-12-31T03:30:08.822Z,0.00
2017-12-31T03:31:08.825Z,0.00
2017-12-31T03:32:08.835Z,0.00
2017-12-31T03:33:08.840Z,0.00
2017-12-31T03:34:08.851Z,0.00
2017-12-31T03:35:08.859Z,0.00
2017-12-31T03:36:08.862Z,0.00
2017-12-31T03:37:08.875Z,0.00
2017-12-31T03:38:08.876Z,0.00
2017-12-31T03:39:08.883Z,0.00
2017-12-31T03:40:08.891Z,0.00
2017-12-31T03:41:08.903Z,0.00
2017-12-31T03:42:08.910Z,0.00
2017-12-31T03:43:08.920Z,0.00
2017-12-31T03:44:08.925Z,0.00
2017-12-31T03:45:08.934Z,0.00
2017-12-31T03:46:08.938Z,0.00
2017-12-31T03:47:08.947Z,0.00
2017-12-31T03:48:08.946Z,0.00
2017-12-31T03:49:08.955Z,0.00
2017-12-31T03:50:08.961Z,0.00
2017-12-31T03:51:08.975Z,0.00
2017-12-31T03:52:08.977Z,0.00
2017-12-31T03:53:08.992Z,0.00
2017-12-31T03:54:08.989Z,0.00
2017-12-31T03:55:09.005Z,0.00
2017-12-31T03:56:09.004Z,0.00
2017-12-31T03:57:09.013Z,0.00
2017-12-31T03:58:09.018Z,0.00
2017-12-31T03:59:09.031Z,0.00
2017-12-31T04:00:09.039Z,0.00
2017-12-31T04:01:09.045Z,0.00
2017-12-31T04:02:09.048Z,0.00
2017-12-31T04:03:09.061Z,0.00
2017-12-31T04:04:09.063Z,0.00
2017-12-31T04:05:09.070Z,0.00
2017-12-31T04:06:09.077Z,0.00
2017-12-31T04:07:09.084Z,0.00
2017-12-31T04:08:09.091Z,0.00
2017-12-31T04:09:09.101Z,0.00
2017-12-31T04:10:09.110Z,0.00
2017-12-31T04:11:09.117Z,0.00
2017-12-31T04:12:09.124Z,0.00
2017-12-31T04:13:09.133Z,0.00
2017-12-31T04:14:09.134Z,0.00
2017-12-31T04:15:09.146Z,0.00
2017-12-31T04:16:09.154Z,0.00
2017-12-31T04:17:09.155Z,0.00
2017-12-31T04:18:09.168Z,0.00
2017-12-31T04:19:09.175Z,0.00
2017-12-31T04:20:09.182Z,0.00
2017-12-31T04:21:09.188Z,0.00
2017-12-31T04:22:09.191Z,0.00
2017-12-31T04:23:09.202Z,0.00
2017-12-31T04:24:09.206Z,0.00
2017-12-31T04:25:09.217Z,0.00
2017-12-31T04:26:09.220Z,0.00
2017-12-31T04:27:09.231Z,0.00
2017-12-31T04:28:09.232Z,0.00
2017-12-31T04:29:09.246Z,0.00
2017-12-31T04:30:09.247Z,0.00
2017-12-31T04:31:09.254Z,0.00
2017-12-31T04:32:09.268Z,0.00
2017-12-31T04:33:09.269Z,0.00
2017-12-31T04:34:09.284Z,0.00
2017-12-31T04:35:09.290Z,0.00
2017-12-31T04:36:09.298Z,0.00
2017-12-31T04:37:09.298Z,0.00
2017-12-31T04:38:09.305Z,0.00
2017-12-31T04:39:09.312Z,0.00
2017-12-31T04:40:09.325Z,0.00
2017-12-31T04:41:09.331Z,0.00
2017-12-31T04:42:09.333Z,0.00
2017-12-31T04:43:09.346Z,0.00
2017-12-31T04:44:09.390Z,0.00
2017-12-31T04:45:09.360Z,0.00
2017-12-31T04:46:09.369Z,0.00
2017-12-31T04:47:09.376Z,0.00
2017-12-31T04:48:09.380Z,0.00
2017-12-31T04:49:09.388Z,0.00
2017-12-31T04:50:09.392Z,0.00
2017-12-31T04:51:09.401Z,0.00
2017-12-31T04:52:09.413Z,0.00
2017-12-31T04:53:09.417Z,0.00
2017-12-31T04:54:09.421Z,0.00
2017-12-31T04:55:09.433Z,0.00
2017-12-31T04:56:09.443Z,0.00
2017-12-31T04:57:09.443Z,0.00
2017-12-31T04:58:09.452Z,0.00
2017-12-31T04:59:09.464Z,0.00
2017-12-31T05:00:09.471Z,0.00
2017-12-31T05:01:09.474Z,0.00
2017-12-31T05:02:09.486Z,0.00
2017-12-31T05:03:09.488Z,0.00
2017-12-31T05:04:09.497Z,0.00
2017-12-31T05:05:09.504Z,0.00
2017-12-31T05:06:09.511Z,0.00
2017-12-31T05:07:09.524Z,0.00
2017-12-31T05:08:09.531Z,0.00
2017-12-31T05:09:09.538Z,0.00
2017-12-31T05:10:09.546Z,0.00
2017-12-31T05:11:09.556Z,0.00
2017-12-31T05:12:09.562Z,0.00
2017-12-31T05:13:09.564Z,0.00
2017-12-31T05:14:09.578Z,0.00
2017-12-31T05:15:09.582Z,0.00
2017-12-31T05:16:09.591Z,0.00
2017-12-31T05:17:09.627Z,0.00
2017-12-31T05:18:09.601Z,0.00
2017-12-31T05:19:09.613Z,0.00
2017-12-31T05:20:09.620Z,0.00
2017-12-31T05:21:09.628Z,0.00
2017-12-31T05:22:09.635Z,0.00
2017-12-31T05:23:09.642Z,0.00
2017-12-31T05:24:09.655Z,0.00
2017-12-31T05:25:09.659Z,0.00
2017-12-31T05:26:09.658Z,0.00
2017-12-31T05:27:09.664Z,0.00
2017-12-31T05:28:09.679Z,0.00
2017-12-31T05:29:09.684Z,0.00
2017-12-31T05:30:09.685Z,0.00
2017-12-31T05:31:09.692Z,0.00
2017-12-31T05:32:09.702Z,0.00
2017-12-31T05:33:09.714Z,0.00
2017-12-31T05:34:09.719Z,0.00
2017-12-31T05:35:09.725Z,0.00
2017-12-31T05:36:09.733Z,0.00
2017-12-31T05:37:09.740Z,0.00
2017-12-31T05:38:09.739Z,0.00
2017-12-31T05:39:09.752Z,0.00
2017-12-31T05:40:09.759Z,0.00
2017-12-31T05:41:09.767Z,0.00
2017-12-31T05:42:09.768Z,0.00
2017-12-31T05:43:09.778Z,0.00
2017-12-31T05:44:09.786Z,0.00
2017-12-31T05:45:09.788Z,0.00
2017-12-31T05:46:09.799Z,0.00
2017-12-31T05:47:09.809Z,0.00
2017-12-31T05:48:09.814Z,0.00
2017-12-31T05:49:09.821Z,0.00
2017-12-31T05:50:09.821Z,0.00
2017-12-31T05:51:09.828Z,0.00
2017-12-31T05:52:09.835Z,0.00
2017-12-31T05:53:09.848Z,0.00
2017-12-31T05:54:09.847Z,0.00
2017-12-31T05:55:09.861Z,0.00
2017-12-31T05:56:09.869Z,0.00
2017-12-31T05:57:09.869Z,0.00
2017-12-31T05:58:09.884Z,0.00
2017-12-31T05:59:09.882Z,0.00
2017-12-31T06:00:09.895Z,0.00
2017-12-31T06:01:09.896Z,0.00
2017-12-31T06:02:09.902Z,0.00
2017-12-31T06:03:09.908Z,0.00
2017-12-31T06:04:09.916Z,0.00
2017-12-31T06:05:09.928Z,0.00
2017-12-31T06:06:09.927Z,0.00
2017-12-31T06:07:09.936Z,0.00
2017-12-31T06:08:09.950Z,0.00
2017-12-31T06:09:09.956Z,0.00
2017-12-31T06:10:09.963Z,0.00
2017-12-31T06:11:09.968Z,0.00
2017-12-31T06:12:09.976Z,0.00
2017-12-31T06:13:09.982Z,0.00
2017-12-31T06:14:09.987Z,0.00
2017-12-31T06:15:09.990Z,0.00
2017-12-31T06:16:10.003Z,0.00
2017-12-31T06:17:10.011Z,0.00
2017-12-31T06:18:10.018Z,0.00
2017-12-31T06:19:10.018Z,0.00
2017-12-31T06:20:10.028Z,0.00
2017-12-31T06:21:10.039Z,0.00
2017-12-31T06:22:10.040Z,0.00
2017-12-31T06:23:10.048Z,0.00
2017-12-31T06:24:10.059Z,0.00
2017-12-31T06:25:10.067Z,0.00
2017-12-31T06:26:10.068Z,0.00
2017-12-31T06:27:10.080Z,0.00
2017-12-31T06:28:10.086Z,0.00
2017-12-31T06:29:10.090Z,0.00
2017-12-31T06:30:10.097Z,0.00
2017-12-31T06:31:10.107Z,0.00
2017-12-31T06:32:10.116Z,0.00
2017-12-31T06:33:10.116Z,0.00
2017-12-31T06:34:10.129Z,0.00
2017-12-31T06:35:10.137Z,0.00
2017-12-31T06:36:10.143Z,0.00
2017-12-31T06:37:10.145Z,0.00
2017-12-31T06:38:10.157Z,0.00
2017-12-31T06:39:10.168Z,0.00
2017-12-31T06:40:10.169Z,0.00
2017-12-31T06:41:10.175Z,0.00
2017-12-31T06:42:10.182Z,0.00
2017-12-31T06:43:10.188Z,0.00
2017-12-31T06:44:10.193Z,0.00
2017-12-31T06:45:10.198Z,0.00
2017-12-31T06:46:10.208Z,0.00
2017-12-31T06:47:10.210Z,4.00
2017-12-31T06:48:10.222Z,0.00
2017-12-31T06:49:10.229Z,4.00
2017-12-31T06:50:10.237Z,0.00
2017-12-31T06:51:10.236Z,0.00
2017-12-31T06:52:10.248Z,0.00
2017-12-31T06:53:10.248Z,4.00
2017-12-31T06:54:10.261Z,4.00
2017-12-31T06:55:10.260Z,4.00
2017-12-31T06:56:10.270Z,4.00
2017-12-31T06:57:10.275Z,4.00
2017-12-31T06:58:10.280Z,8.00
2017-12-31T06:59:10.293Z,4.00
2017-12-31T07:00:10.298Z,8.00
2017-12-31T07:01:10.301Z,8.00
2017-12-31T07:02:10.311Z,12.00
2017-12-31T07:03:10.313Z,12.00
2017-12-31T07:04:10.320Z,12.00
2017-12-31T07:05:10.330Z,16.00
2017-12-31T07:06:10.332Z,16.00
2017-12-31T07:07:10.342Z,20.00
2017-12-31T07:08:10.344Z,20.00
2017-12-31T07:09:10.351Z,20.00
2017-12-31T07:10:10.355Z,24.00
2017-12-31T07:11:10.363Z,24.00
2017-12-31T07:12:10.377Z,24.00
2017-12-31T07:13:10.376Z,28.00
2017-12-31T07:14:10.390Z,32.00
2017-12-31T07:15:10.394Z,32.00
2017-12-31T07:16:10.394Z,36.00
2017-12-31T07:17:10.419Z,36.00
2017-12-31T07:18:10.408Z,40.00
2017-12-31T07:19:10.418Z,44.00
2017-12-31T07:20:10.423Z,48.00
2017-12-31T07:21:10.431Z,48.00
2017-12-31T07:22:10.432Z,48.00
2017-12-31T07:23:10.444Z,52.00
2017-12-31T07:24:10.445Z,52.00
2017-12-31T07:25:10.451Z,60.00
2017-12-31T07:26:10.462Z,60.00
2017-12-31T07:27:10.470Z,64.00
2017-12-31T07:28:10.546Z,64.00
2017-12-31T07:29:10.476Z,68.00
2017-12-31T07:30:10.488Z,68.00
2017-12-31T07:31:10.495Z,76.00
2017-12-31T07:32:10.495Z,76.00
2017-12-31T07:33:10.502Z,76.00
2017-12-31T07:34:10.508Z,80.00
2017-12-31T07:35:10.518Z,84.00
2017-12-31T07:36:10.527Z,88.00
2017-12-31T07:37:10.526Z,88.00
2017-12-31T07:38:10.541Z,92.00
2017-12-31T07:39:10.542Z,96.00
2017-12-31T07:40:10.546Z,96.00
2017-12-31T07:41:10.554Z,100.00
2017-12-31T07:42:10.557Z,100.00
2017-12-31T07:43:10.567Z,104.00
2017-12-31T07:44:10.569Z,108.00
2017-12-31T07:45:10.576Z,108.00
2017-12-31T07:46:10.584Z,112.00
2017-12-31T07:47:10.589Z,112.00
2017-12-31T07:48:10.602Z,116.00
2017-12-31T07:49:10.606Z,120.00
2017-12-31T07:50:10.612Z,120.00
2017-12-31T07:51:10.618Z,120.00
2017-12-31T07:52:10.629Z,124.00
2017-12-31T07:53:10.625Z,128.00
2017-12-31T07:54:10.631Z,132.00
2017-12-31T07:55:10.646Z,128.00
2017-12-31T07:56:10.650Z,132.00
2017-12-31T07:57:10.657Z,136.00
2017-12-31T07:58:10.658Z,136.00
2017-12-31T07:59:10.671Z,140.00
2017-12-31T08:00:10.679Z,140.00
2017-12-31T08:01:10.686Z,144.00
2017-12-31T08:02:10.684Z,144.00
2017-12-31T08:03:10.696Z,148.00
2017-12-31T08:04:10.700Z,148.00
2017-12-31T08:05:10.706Z,152.00
2017-12-31T08:06:10.709Z,152.00
2017-12-31T08:07:10.719Z,156.00
2017-12-31T08:08:10.720Z,156.00
2017-12-31T08:09:10.737Z,160.00
2017-12-31T08:10:10.783Z,164.00
2017-12-31T08:11:10.812Z,164.00
2017-12-31T08:12:10.752Z,168.00
2017-12-31T08:13:10.757Z,168.00
2017-12-31T08:14:10.828Z,172.00
2017-12-31T08:15:10.769Z,176.00
2017-12-31T08:16:10.771Z,176.00
2017-12-31T08:17:10.779Z,180.00
2017-12-31T08:18:10.787Z,180.00
2017-12-31T08:19:10.798Z,180.00
2017-12-31T08:20:10.800Z,184.00
2017-12-31T08:21:10.806Z,188.00
2017-12-31T08:22:10.818Z,188.00
2017-12-31T08:23:10.820Z,188.00
2017-12-31T08:24:10.827Z,188.00
2017-12-31T08:25:10.839Z,188.00
2017-12-31T08:26:10.840Z,192.00
2017-12-31T08:27:10.846Z,192.00
2017-12-31T08:28:10.855Z,196.00
2017-12-31T08:29:10.859Z,196.00
2017-12-31T08:30:11.023Z,196.00
2017-12-31T08:31:10.872Z,196.00
2017-12-31T08:32:10.884Z,200.00
2017-12-31T08:33:10.885Z,200.00
2017-12-31T08:34:10.893Z,200.00
2017-12-31T08:35:10.899Z,204.00
2017-12-31T08:36:10.908Z,208.00
2017-12-31T08:37:10.912Z,212.00
2017-12-31T08:38:10.919Z,216.00
2017-12-31T08:39:10.925Z,224.00
2017-12-31T08:40:10.937Z,252.00
2017-12-31T08:41:10.938Z,436.00
2017-12-31T08:42:10.958Z,716.00
2017-12-31T08:43:10.952Z,1016.00
2017-12-31T08:44:10.963Z,1172.00
2017-12-31T08:45:10.983Z,1212.00
2017-12-31T08:46:10.972Z,1240.00
2017-12-31T08:47:10.986Z,1280.00
2017-12-31T08:48:10.988Z,1312.00
2017-12-31T08:49:11.004Z,1336.00
2017-12-31T08:50:11.001Z,1344.00
2017-12-31T08:51:11.015Z,1336.00
2017-12-31T08:52:11.022Z,1332.00
2017-12-31T08:53:11.026Z,1340.00
2017-12-31T08:54:11.040Z,1348.00
2017-12-31T08:55:11.047Z,1368.00
2017-12-31T08:56:11.054Z,1396.00
2017-12-31T08:57:11.062Z,1424.00
2017-12-31T08:58:11.066Z,1452.00
2017-12-31T08:59:11.082Z,1488.00
2017-12-31T09:00:11.085Z,1516.00
2017-12-31T09:01:11.093Z,1544.00
2017-12-31T09:02:11.102Z,1568.00
2017-12-31T09:03:11.114Z,1588.00
2017-12-31T09:04:11.124Z,1336.00
2017-12-31T09:05:11.138Z,1588.00
2017-12-31T09:06:11.141Z,1632.00
2017-12-31T09:07:11.152Z,1636.00
2017-12-31T09:08:11.167Z,1644.00
2017-12-31T09:09:11.174Z,1660.00
2017-12-31T09:10:11.187Z,1676.00
2017-12-31T09:11:11.195Z,1692.00
2017-12-31T09:12:11.199Z,1712.00
2017-12-31T09:13:11.207Z,1728.00
2017-12-31T09:14:11.219Z,1752.00
2017-12-31T09:15:11.232Z,1768.00
2017-12-31T09:16:11.247Z,1788.00
2017-12-31T09:17:11.247Z,1812.00
2017-12-31T09:18:11.265Z,1828.00
2017-12-31T09:19:11.275Z,1856.00
2017-12-31T09:20:11.277Z,1876.00
2017-12-31T09:21:11.293Z,1892.00
2017-12-31T09:22:11.305Z,1912.00
2017-12-31T09:23:11.322Z,1884.00
2017-12-31T09:24:11.322Z,1908.00
2017-12-31T09:25:11.334Z,1940.00
2017-12-31T09:26:11.345Z,1960.00
2017-12-31T09:27:11.356Z,1960.00
2017-12-31T09:28:11.363Z,1968.00
2017-12-31T09:29:11.376Z,2012.00
2017-12-31T09:30:11.388Z,2028.00
2017-12-31T09:31:11.391Z,2048.00
2017-12-31T09:32:11.403Z,2068.00
2017-12-31T09:33:11.418Z,2076.00
2017-12-31T09:34:11.428Z,2088.00
2017-12-31T09:35:11.443Z,2096.00
2017-12-31T09:36:11.451Z,2096.00
2017-12-31T09:37:11.464Z,2124.00
2017-12-31T09:38:11.465Z,2140.00
2017-12-31T09:39:11.477Z,2156.00
2017-12-31T09:40:11.492Z,2164.00
2017-12-31T09:41:11.503Z,2184.00
2017-12-31T09:42:11.512Z,2204.00
2017-12-31T09:43:11.525Z,2224.00
2017-12-31T09:44:11.538Z,2244.00
2017-12-31T09:45:11.552Z,2256.00
2017-12-31T09:46:11.559Z,2272.00
2017-12-31T09:47:11.568Z,2280.00
2017-12-31T09:48:11.582Z,2300.00
2017-12-31T09:49:11.585Z,2308.00
2017-12-31T09:50:11.600Z,2340.00
2017-12-31T09:51:11.605Z,2352.00
2017-12-31T09:52:11.621Z,2376.00
2017-12-31T09:53:11.629Z,2404.00
2017-12-31T09:54:11.639Z,2428.00
2017-12-31T09:55:11.654Z,2452.00
2017-12-31T09:56:11.661Z,2476.00
2017-12-31T09:57:11.674Z,2492.00
2017-12-31T09:58:11.684Z,2520.00
2017-12-31T09:59:11.697Z,2552.00
2017-12-31T10:00:11.707Z,2564.00
2017-12-31T10:01:11.720Z,2592.00
2017-12-31T10:02:11.735Z,2612.00
2017-12-31T10:03:11.747Z,2640.00
2017-12-31T10:04:11.761Z,2660.00
2017-12-31T10:05:11.767Z,2680.00
2017-12-31T10:06:11.776Z,2696.00
2017-12-31T10:07:11.793Z,2712.00
2017-12-31T10:08:11.799Z,2728.00
2017-12-31T10:09:11.819Z,2744.00
2017-12-31T10:10:11.827Z,2760.00
2017-12-31T10:11:11.840Z,2780.00
2017-12-31T10:12:11.854Z,2796.00
2017-12-31T10:13:11.873Z,2804.00
2017-12-31T10:14:11.879Z,2824.00
2017-12-31T10:15:11.891Z,2836.00
2017-12-31T10:16:11.903Z,2848.00
2017-12-31T10:17:11.916Z,2860.00
2017-12-31T10:18:11.930Z,2872.00
2017-12-31T10:19:11.939Z,2884.00
2017-12-31T10:20:11.953Z,2892.00
2017-12-31T10:21:11.960Z,2904.00
2017-12-31T10:22:11.979Z,2908.00
2017-12-31T10:23:11.992Z,2920.00
2017-12-31T10:24:12.007Z,2924.00
2017-12-31T10:25:12.018Z,2936.00
2017-12-31T10:26:12.034Z,2944.00
2017-12-31T10:27:12.044Z,2952.00
2017-12-31T10:28:12.065Z,2960.00
2017-12-31T10:29:12.072Z,2968.00
2017-12-31T10:30:12.088Z,2976.00
2017-12-31T10:31:12.099Z,2920.00
2017-12-31T10:32:12.117Z,2944.00
2017-12-31T10:33:12.127Z,2996.00
2017-12-31T10:34:12.142Z,3008.00
2017-12-31T10:35:12.156Z,3024.00
2017-12-31T10:36:12.168Z,3044.00
2017-12-31T10:37:12.187Z,3040.00
2017-12-31T10:38:12.201Z,3056.00
2017-12-31T10:39:12.214Z,1944.00
2017-12-31T10:40:12.224Z,2252.00
2017-12-31T10:41:12.241Z,2416.00
2017-12-31T10:42:12.260Z,2844.00
2017-12-31T10:43:12.275Z,3044.00
2017-12-31T10:44:12.342Z,3084.00
2017-12-31T10:45:12.298Z,3092.00
2017-12-31T10:46:12.320Z,2580.00
2017-12-31T10:47:12.334Z,3088.00
2017-12-31T10:48:12.346Z,3068.00
2017-12-31T10:49:12.364Z,3008.00
2017-12-31T10:50:12.381Z,2796.00
2017-12-31T10:51:12.400Z,2244.00
2017-12-31T10:52:12.410Z,2708.00
2017-12-31T10:53:12.424Z,2592.00
2017-12-31T10:54:12.442Z,2572.00
2017-12-31T10:55:12.460Z,2792.00
2017-12-31T10:56:12.474Z,2868.00
2017-12-31T10:57:12.495Z,2872.00
2017-12-31T10:58:12.500Z,2840.00
2017-12-31T10:59:12.522Z,2712.00
2017-12-31T11:00:12.535Z,2668.00
2017-12-31T11:01:12.552Z,2680.00
2017-12-31T11:02:12.563Z,2732.00
2017-12-31T11:03:12.584Z,3084.00
2017-12-31T11:04:12.598Z,3140.00
2017-12-31T11:05:12.617Z,3092.00
2017-12-31T11:06:12.638Z,2764.00
2017-12-31T11:07:12.644Z,2116.00
2017-12-31T11:08:12.669Z,1740.00
2017-12-31T11:09:12.678Z,1808.00
2017-12-31T11:10:12.697Z,2292.00
2017-12-31T11:11:12.715Z,2324.00
2017-12-31T11:12:12.734Z,2664.00
2017-12-31T11:13:12.745Z,2800.00
2017-12-31T11:14:12.767Z,2864.00
2017-12-31T11:15:12.783Z,2588.00
2017-12-31T11:16:12.802Z,2736.00
2017-12-31T11:17:12.820Z,2544.00
2017-12-31T11:18:12.830Z,2584.00
2017-12-31T11:19:12.851Z,2528.00
2017-12-31T11:20:12.869Z,2832.00
2017-12-31T11:21:12.878Z,2816.00
2017-12-31T11:22:12.896Z,2812.00
2017-12-31T11:23:12.912Z,2672.00
2017-12-31T11:24:12.932Z,2636.00
2017-12-31T11:25:12.951Z,2764.00
2017-12-31T11:26:12.969Z,2912.00
2017-12-31T11:27:12.980Z,2656.00
2017-12-31T11:28:13.006Z,2376.00
2017-12-31T11:29:13.023Z,2256.00
2017-12-31T11:30:13.036Z,2360.00
2017-12-31T11:31:13.064Z,2760.00
2017-12-31T11:32:13.075Z,2912.00
2017-12-31T11:33:13.092Z,2992.00
2017-12-31T11:34:13.105Z,2984.00
2017-12-31T11:35:13.133Z,3064.00
2017-12-31T11:36:13.138Z,3032.00
2017-12-31T11:37:13.156Z,3016.00
2017-12-31T11:38:13.174Z,3016.00
2017-12-31T11:39:13.213Z,3140.00
2017-12-31T11:40:13.212Z,3056.00
2017-12-31T11:41:13.230Z,2984.00
2017-12-31T11:42:13.253Z,2900.00
2017-12-31T11:43:13.263Z,2984.00
2017-12-31T11:44:13.283Z,3016.00
2017-12-31T11:45:13.308Z,2896.00
2017-12-31T11:46:13.326Z,3164.00
2017-12-31T11:47:13.336Z,2904.00
2017-12-31T11:48:13.366Z,2300.00
2017-12-31T11:49:13.384Z,2128.00
2017-12-31T11:50:13.414Z,2084.00
2017-12-31T11:51:13.416Z,2556.00
2017-12-31T11:52:13.438Z,2976.00
2017-12-31T11:53:13.458Z,2784.00
2017-12-31T11:54:13.475Z,2556.00
2017-12-31T11:55:13.493Z,2636.00
2017-12-31T11:56:13.507Z,2864.00
2017-12-31T11:57:13.527Z,2968.00
2017-12-31T11:58:13.552Z,2828.00
2017-12-31T11:59:13.572Z,2932.00
2017-12-31T12:00:13.589Z,2640.00
2017-12-31T12:01:13.601Z,2472.00
2017-12-31T12:02:13.622Z,2508.00
2017-12-31T12:03:13.650Z,2072.00
2017-12-31T12:04:13.693Z,2036.00
2017-12-31T12:05:13.688Z,1772.00
2017-12-31T12:06:13.702Z,1616.00
2017-12-31T12:07:13.719Z,1292.00
2017-12-31T12:08:13.747Z,1160.00
2017-12-31T12:09:13.750Z,1060.00
2017-12-31T12:10:13.774Z,1020.00
2017-12-31T12:11:13.805Z,1180.00
2017-12-31T12:12:13.807Z,1136.00
2017-12-31T12:13:13.823Z,1056.00
2017-12-31T12:14:13.851Z,1188.00
2017-12-31T12:15:13.868Z,1236.00
2017-12-31T12:16:13.882Z,1424.00
2017-12-31T12:17:13.905Z,1508.00
2017-12-31T12:18:13.914Z,2108.00
2017-12-31T12:19:13.940Z,2076.00
2017-12-31T12:20:13.956Z,2272.00
2017-12-31T12:21:13.971Z,2220.00
2017-12-31T12:22:13.992Z,1904.00
2017-12-31T12:23:14.012Z,2312.00
2017-12-31T12:24:14.024Z,2508.00
2017-12-31T12:25:14.046Z,2420.00
2017-12-31T12:26:14.063Z,2276.00
2017-12-31T12:27:14.083Z,2016.00
2017-12-31T12:28:14.099Z,1844.00
2017-12-31T12:29:14.122Z,2080.00
2017-12-31T12:30:14.137Z,2132.00
2017-12-31T12:31:14.153Z,2268.00
2017-12-31T12:32:14.171Z,2116.00
2017-12-31T12:33:14.188Z,2104.00
2017-12-31T12:34:14.207Z,1884.00
2017-12-31T12:35:14.222Z,1936.00
2017-12-31T12:36:14.245Z,2072.00
2017-12-31T12:37:14.261Z,2504.00
2017-12-31T12:38:14.293Z,2528.00
2017-12-31T12:39:14.302Z,2624.00
2017-12-31T12:40:14.320Z,2624.00
2017-12-31T12:41:14.343Z,2704.00
2017-12-31T12:42:15.364Z,2772.00
2017-12-31T12:43:14.370Z,2704.00
2017-12-31T12:44:14.396Z,2612.00
2017-12-31T12:45:14.403Z,2520.00
2017-12-31T12:46:14.425Z,2304.00
2017-12-31T12:47:14.452Z,2640.00
2017-12-31T12:48:14.466Z,2796.00